Time;durP1;ratioP1;P1;durP2;ratioP2;P2;SDS_P1;SDS_P2;PMS_P1;PMS_P2;Temp;Humidity;BMP_temperature;BMP_pressure;BME280_temperature;BME280_humidity;BME280_pressure;Samples;Min_cycle;Max_cycle;Signal;HPM_P1;HPM_P2
2022/05/25 00:01:04;;;;;;;;;;;15.20;90.80;;;;;;5008790;28;19920;-61
2022/05/25 00:03:32;;;;;;;;;;;15.20;90.80;;;;;;5025171;28;19927;-62
2022/05/25 00:05:59;;;;;;;;;;;15.30;91.00;;;;;;5026941;28;19911;-62
2022/05/25 00:08:26;;;;;;;;;;;15.40;90.60;;;;;;5016999;28;19922;-62
2022/05/25 00:10:53;;;;;;;;;;;15.50;90.30;;;;;;5026841;28;19917;-62
2022/05/25 00:13:19;;;;;;;;;;;15.60;89.80;;;;;;5016305;28;19905;-62
2022/05/25 00:15:46;;;;;;;;;;;15.60;90.00;;;;;;5019703;28;19913;-62
2022/05/25 00:18:13;;;;;;;;;;;15.70;90.00;;;;;;5022806;28;20323;-62
2022/05/25 00:20:39;;;;;;;;;;;15.80;89.90;;;;;;5018210;28;19913;-62
2022/05/25 00:23:06;;;;;;;;;;;15.80;89.70;;;;;;5013279;28;19905;-62
2022/05/25 00:25:34;;;;;;;;;;;16.00;90.40;;;;;;5020893;28;19917;-62
2022/05/25 00:28:01;;;;;;;;;;;16.10;88.20;;;;;;5014031;28;20392;-62
2022/05/25 00:30:29;;;;;;;;;;;16.10;87.90;;;;;;5025678;28;19920;-62
2022/05/25 00:32:56;;;;;;;;;;;16.20;88.50;;;;;;5019199;28;20338;-61
2022/05/25 00:35:23;;;;;;;;;;;16.30;88.90;;;;;;5014949;28;19913;-63
2022/05/25 00:37:50;;;;;;;;;;;16.40;86.90;;;;;;5025437;28;19905;-62
2022/05/25 00:40:18;;;;;;;;;;;16.40;87.00;;;;;;5028770;28;19917;-62
2022/05/25 00:42:45;;;;;;;;;;;16.50;87.60;;;;;;5027573;28;19905;-62
2022/05/25 00:45:13;;;;;;;;;;;16.60;85.90;;;;;;5017351;28;19921;-61
2022/05/25 00:47:41;;;;;;;;;;;16.70;86.50;;;;;;5027187;28;20361;-62
2022/05/25 00:50:09;;;;;;;;;;;16.70;85.80;;;;;;5027865;28;20316;-61
2022/05/25 00:52:37;;;;;;;;;;;16.80;85.20;;;;;;5031182;28;20363;-61
2022/05/25 00:55:06;;;;;;;;;;;16.90;86.20;;;;;;5018265;28;19910;-60
2022/05/25 00:57:37;;;;;;;;;;;17.00;87.40;;;;;;5024315;28;19944;-60
2022/05/25 01:00:21;;;;;;;;;;;17.20;84.50;;;;;;5024312;28;19909;-60
2022/05/25 01:02:49;;;;;;;;;;;17.20;85.00;;;;;;5028967;28;19967;-61
2022/05/25 01:05:19;;;;;;;;;;;17.20;83.40;;;;;;5027566;28;19917;-61
2022/05/25 01:07:49;;;;;;;;;;;17.20;83.70;;;;;;5025190;28;19916;-61
2022/05/25 01:10:33;;;;;;;;;;;17.30;86.00;;;;;;5025992;28;19913;-61
2022/05/25 01:13:08;;;;;;;;;;;17.50;84.50;;;;;;5028492;28;19955;-59
2022/05/25 01:15:35;;;;;;;;;;;17.60;82.70;;;;;;5028919;28;19915;-59
2022/05/25 01:18:20;;;;;;;;;;;17.70;81.60;;;;;;5028457;28;19942;-61
2022/05/25 01:21:16;;;;;;;;;;;17.70;81.60;;;;;;5020857;28;19988;-62
2022/05/25 01:24:01;;;;;;;;;;;17.80;82.20;;;;;;4985410;28;20403;-62
2022/05/25 01:26:39;;;;;;;;;;;17.70;79.20;;;;;;5022483;28;19916;-60
2022/05/25 01:29:09;;;;;;;;;;;17.60;80.80;;;;;;5016298;28;19909;-59
2022/05/25 01:31:56;;;;;;;;;;;17.60;79.20;;;;;;5022710;28;20694;-60
2022/05/25 01:34:34;;;;;;;;;;;17.70;79.80;;;;;;5022754;28;19970;-60
2022/05/25 01:37:24;;;;;;;;;;;17.80;81.50;;;;;;5014953;28;19960;-60
2022/05/25 01:39:59;;;;;;;;;;;18.00;79.90;;;;;;5027218;28;19953;-60
2022/05/25 01:42:39;;;;;;;;;;;18.00;77.90;;;;;;5028176;28;20293;-60
2022/05/25 01:45:07;;;;;;;;;;;17.90;79.60;;;;;;5015571;28;19928;-60
2022/05/25 01:47:35;;;;;;;;;;;17.90;79.40;;;;;;5023321;28;19960;-61
2022/05/25 01:50:04;;;;;;;;;;;17.90;79.50;;;;;;5012734;28;19914;-61
2022/05/25 01:52:43;;;;;;;;;;;17.90;80.80;;;;;;5021848;28;19915;-60
2022/05/25 01:55:13;;;;;;;;;;;18.10;78.50;;;;;;5028941;28;19955;-61
2022/05/25 01:57:43;;;;;;;;;;;18.30;79.30;;;;;;5021217;28;19909;-60
2022/05/25 02:00:09;;;;;;;;;;;18.60;77.40;;;;;;5022572;28;20377;-61
2022/05/25 02:05:21;;;;;;;;;;;19.00;77.50;;;;;;5019988;28;19964;-61
2022/05/25 02:08:10;;;;;;;;;;;19.00;74.50;;;;;;5021245;28;19967;-60
2022/05/25 02:10:55;;;;;;;;;;;18.90;75.30;;;;;;5028593;28;19924;-60
2022/05/25 02:13:24;;;;;;;;;;;18.80;74.50;;;;;;5018986;28;19941;-60
2022/05/25 02:15:51;;;;;;;;;;;18.70;74.60;;;;;;5019110;28;20404;-60
2022/05/25 02:18:38;;;;;;;;;;;18.60;74.00;;;;;;5027677;28;20143;-60
2022/05/25 02:21:20;;;;;;;;;;;18.50;75.30;;;;;;5014181;28;19909;-61
2022/05/25 02:23:50;;;;;;;;;;;18.60;77.00;;;;;;5025817;28;20313;-61
2022/05/25 02:26:29;;;;;;;;;;;18.70;76.50;;;;;;5026954;28;19913;-60
2022/05/25 02:28:59;;;;;;;;;;;18.90;74.50;;;;;;5014204;28;20794;-60
2022/05/25 02:31:28;;;;;;;;;;;19.00;73.50;;;;;;5028276;28;19909;-60
2022/05/25 02:33:58;;;;;;;;;;;19.10;72.40;;;;;;5021591;28;19923;-59
2022/05/25 02:36:24;;;;;;;;;;;19.20;72.30;;;;;;5028492;28;19953;-60
2022/05/25 02:38:51;;;;;;;;;;;19.20;71.40;;;;;;5013876;28;19959;-61
2022/05/25 02:41:33;;;;;;;;;;;19.20;69.80;;;;;;5021412;28;20000;-60
2022/05/25 02:44:01;;;;;;;;;;;19.10;70.10;;;;;;5021740;28;20039;-60
2022/05/25 02:46:28;;;;;;;;;;;19.10;70.00;;;;;;5025221;28;19923;-60
2022/05/25 02:48:55;;;;;;;;;;;19.10;72.00;;;;;;5024385;28;20019;-60
2022/05/25 02:51:22;;;;;;;;;;;19.10;70.90;;;;;;5023199;28;19917;-51
2022/05/25 02:53:48;;;;;;;;;;;19.00;70.90;;;;;;5011563;28;19967;-53
2022/05/25 02:56:15;;;;;;;;;;;18.90;71.50;;;;;;5028201;28;19909;-62
2022/05/25 02:58:41;;;;;;;;;;;18.80;71.40;;;;;;5021819;28;19920;-52
2022/05/25 03:01:08;;;;;;;;;;;18.80;69.50;;;;;;5019102;28;19909;-52
2022/05/25 03:03:36;;;;;;;;;;;18.80;69.70;;;;;;5023410;28;20040;-50
2022/05/25 03:06:04;;;;;;;;;;;18.90;70.80;;;;;;5016709;28;19987;-48
2022/05/25 03:08:31;;;;;;;;;;;18.90;69.00;;;;;;5019665;28;20037;-48
2022/05/25 03:10:57;;;;;;;;;;;19.00;69.40;;;;;;5026369;28;19920;-48
2022/05/25 03:13:24;;;;;;;;;;;19.00;68.90;;;;;;5029067;28;20012;-49
2022/05/25 03:15:51;;;;;;;;;;;19.10;68.80;;;;;;5023035;28;19909;-49
2022/05/25 03:18:17;;;;;;;;;;;19.10;68.60;;;;;;5025717;28;19916;-48
2022/05/25 03:20:44;;;;;;;;;;;19.20;67.60;;;;;;5023010;28;19905;-48
2022/05/25 03:23:12;;;;;;;;;;;19.30;69.10;;;;;;5025127;28;19909;-53
2022/05/25 03:25:38;;;;;;;;;;;19.40;67.60;;;;;;5019974;28;19929;-51
2022/05/25 03:28:05;;;;;;;;;;;19.20;66.50;;;;;;5019418;28;19935;-50
2022/05/25 03:30:32;;;;;;;;;;;19.30;66.70;;;;;;5029547;28;19916;-53
2022/05/25 03:32:58;;;;;;;;;;;19.30;67.50;;;;;;5020724;28;19921;-52
2022/05/25 03:35:25;;;;;;;;;;;19.50;68.40;;;;;;5021419;28;19910;-52
2022/05/25 03:37:51;;;;;;;;;;;19.50;66.80;;;;;;5017099;28;19917;-53
2022/05/25 03:40:18;;;;;;;;;;;19.60;66.60;;;;;;5019757;28;20289;-52
2022/05/25 03:42:45;;;;;;;;;;;19.70;66.70;;;;;;5020177;28;19916;-55
2022/05/25 03:45:13;;;;;;;;;;;19.70;66.00;;;;;;5018451;28;19921;-55
2022/05/25 03:47:40;;;;;;;;;;;19.70;66.00;;;;;;5017415;28;19925;-56
2022/05/25 03:50:07;;;;;;;;;;;19.70;66.70;;;;;;5017666;28;19913;-53
2022/05/25 03:52:34;;;;;;;;;;;19.70;67.90;;;;;;5021019;28;19905;-53
2022/05/25 03:55:00;;;;;;;;;;;19.90;66.60;;;;;;5013727;28;19909;-54
2022/05/25 03:57:27;;;;;;;;;;;19.90;66.10;;;;;;5013145;28;19920;-57
2022/05/25 03:59:54;;;;;;;;;;;19.80;66.00;;;;;;5020830;28;19940;-56
2022/05/25 04:02:21;;;;;;;;;;;19.80;67.70;;;;;;5021913;28;20366;-54
2022/05/25 04:04:47;;;;;;;;;;;19.80;67.20;;;;;;5016025;28;19931;-55
2022/05/25 04:07:14;;;;;;;;;;;19.70;65.50;;;;;;5013903;28;20342;-56
2022/05/25 04:09:40;;;;;;;;;;;19.60;64.80;;;;;;5022370;28;19921;-55
2022/05/25 04:12:08;;;;;;;;;;;19.50;66.10;;;;;;5015347;28;19913;-55
2022/05/25 04:14:34;;;;;;;;;;;19.40;65.60;;;;;;5020421;28;19941;-57
2022/05/25 04:17:01;;;;;;;;;;;19.30;67.10;;;;;;5016036;28;19927;-55
2022/05/25 04:19:27;;;;;;;;;;;19.20;67.00;;;;;;5022481;28;19913;-55
2022/05/25 04:21:54;;;;;;;;;;;19.20;66.80;;;;;;5028233;28;19909;-55
2022/05/25 04:24:21;;;;;;;;;;;19.00;67.50;;;;;;5026539;28;19924;-52
2022/05/25 04:26:47;;;;;;;;;;;18.90;68.50;;;;;;5025305;28;19909;-55
2022/05/25 04:29:14;;;;;;;;;;;18.90;69.10;;;;;;5017806;28;19909;-51
2022/05/25 04:31:40;;;;;;;;;;;18.70;69.00;;;;;;5032289;28;19908;-55
2022/05/25 04:34:09;;;;;;;;;;;18.70;69.00;;;;;;5019625;28;19913;-55
2022/05/25 04:36:38;;;;;;;;;;;18.60;69.70;;;;;;5027830;28;19909;-55
2022/05/25 04:39:04;;;;;;;;;;;18.60;69.50;;;;;;5026694;28;20461;-54
2022/05/25 04:41:31;;;;;;;;;;;18.70;69.70;;;;;;5026309;28;20253;-52
2022/05/25 04:43:58;;;;;;;;;;;18.70;69.40;;;;;;5021216;28;20015;-56
2022/05/25 04:46:25;;;;;;;;;;;18.80;69.30;;;;;;5017970;28;20486;-55
2022/05/25 04:48:51;;;;;;;;;;;18.80;69.50;;;;;;5014625;28;19909;-53
2022/05/25 04:51:18;;;;;;;;;;;18.70;69.80;;;;;;5025728;28;19915;-54
2022/05/25 04:53:45;;;;;;;;;;;18.60;70.20;;;;;;5028843;28;19920;-54
2022/05/25 04:58:56;;;;;;;;;;;18.60;73.90;;;;;;5023241;28;19939;-53
2022/05/25 05:01:22;;;;;;;;;;;18.60;77.30;;;;;;5016273;28;20266;-54
2022/05/25 05:03:49;;;;;;;;;;;18.70;77.30;;;;;;5031034;28;19913;-54
2022/05/25 05:06:16;;;;;;;;;;;18.70;77.20;;;;;;5027991;28;19909;-57
2022/05/25 05:08:43;;;;;;;;;;;18.60;76.90;;;;;;5029617;28;19963;-52
2022/05/25 05:11:11;;;;;;;;;;;18.70;77.40;;;;;;5021765;28;20369;-55
2022/05/25 05:13:38;;;;;;;;;;;18.50;77.40;;;;;;5022112;28;19949;-56
2022/05/25 05:16:06;;;;;;;;;;;18.50;78.80;;;;;;5023068;28;20534;-56
2022/05/25 05:18:33;;;;;;;;;;;18.40;78.50;;;;;;5016158;28;19996;-55
2022/05/25 05:20:59;;;;;;;;;;;18.40;78.90;;;;;;5026111;28;20340;-53
2022/05/25 05:23:26;;;;;;;;;;;18.50;78.50;;;;;;5022685;28;20420;-52
2022/05/25 05:25:53;;;;;;;;;;;18.50;77.10;;;;;;5027074;28;19913;-53
2022/05/25 05:28:21;;;;;;;;;;;18.50;76.30;;;;;;5027461;28;20020;-54
2022/05/25 05:30:50;;;;;;;;;;;18.50;76.70;;;;;;5024300;28;19960;-54
2022/05/25 05:33:17;;;;;;;;;;;18.50;76.80;;;;;;5015385;28;19959;-54
2022/05/25 05:35:45;;;;;;;;;;;18.50;75.00;;;;;;5020249;28;20024;-53
2022/05/25 05:38:12;;;;;;;;;;;18.50;75.70;;;;;;5022510;28;19909;-55
2022/05/25 05:40:39;;;;;;;;;;;18.50;75.80;;;;;;5024509;28;20267;-56
2022/05/25 05:43:06;;;;;;;;;;;18.50;75.70;;;;;;5013933;28;19916;-53
2022/05/25 05:45:36;;;;;;;;;;;18.50;75.40;;;;;;5017625;28;19917;-56
2022/05/25 05:48:08;;;;;;;;;;;18.50;75.90;;;;;;5019608;28;19996;-54
2022/05/25 05:50:38;;;;;;;;;;;18.40;76.20;;;;;;5014707;28;20296;-55
2022/05/25 05:53:05;;;;;;;;;;;18.30;77.30;;;;;;5014987;28;20027;-54
2022/05/25 05:55:32;;;;;;;;;;;18.30;77.90;;;;;;5023284;28;19924;-54
2022/05/25 05:57:58;;;;;;;;;;;18.20;78.30;;;;;;5019481;28;19913;-56
2022/05/25 06:00:25;;;;;;;;;;;18.20;78.90;;;;;;5016506;28;19959;-55
2022/05/25 06:02:52;;;;;;;;;;;18.10;78.60;;;;;;5019144;28;19920;-56
2022/05/25 06:05:18;;;;;;;;;;;18.00;78.40;;;;;;5019781;28;19917;-53
2022/05/25 06:07:45;;;;;;;;;;;18.00;78.30;;;;;;5020440;28;19959;-58
2022/05/25 06:10:12;;;;;;;;;;;17.90;78.70;;;;;;5019369;28;20000;-54
2022/05/25 06:12:38;;;;;;;;;;;17.80;78.20;;;;;;5019441;28;19913;-56
2022/05/25 06:20:36;;;;;;;;;;;17.40;79.80;;;;;;5020613;28;19916;-55
2022/05/25 06:23:03;;;;;;;;;;;17.30;80.20;;;;;;5020200;28;19927;-50
2022/05/25 06:25:30;;;;;;;;;;;17.20;80.70;;;;;;5018426;28;19936;-54
2022/05/25 06:27:56;;;;;;;;;;;17.10;81.30;;;;;;5019930;28;19915;-55
2022/05/25 06:30:24;;;;;;;;;;;17.00;82.40;;;;;;5018480;28;19917;-52
2022/05/25 06:32:51;;;;;;;;;;;16.90;82.90;;;;;;5019378;28;20408;-56
2022/05/25 06:35:18;;;;;;;;;;;16.80;83.90;;;;;;5020298;28;20491;-53
2022/05/25 06:37:45;;;;;;;;;;;16.70;84.40;;;;;;5020649;28;19916;-59
2022/05/25 06:40:12;;;;;;;;;;;16.60;85.00;;;;;;5023356;28;19912;-54
2022/05/25 06:42:41;;;;;;;;;;;16.50;85.20;;;;;;5017130;28;19913;-55
2022/05/25 06:45:09;;;;;;;;;;;16.40;85.50;;;;;;5018129;28;19921;-51
2022/05/25 06:47:37;;;;;;;;;;;16.30;86.10;;;;;;5019512;28;19909;-56
2022/05/25 06:50:04;;;;;;;;;;;16.20;86.40;;;;;;5020277;28;19919;-52
2022/05/25 06:52:31;;;;;;;;;;;16.10;86.10;;;;;;5019065;28;19917;-56
2022/05/25 06:54:57;;;;;;;;;;;16.00;86.70;;;;;;5018664;28;21646;-51
2022/05/25 06:57:25;;;;;;;;;;;16.00;86.50;;;;;;5017121;28;19905;-52
2022/05/25 06:59:52;;;;;;;;;;;15.90;87.40;;;;;;5021788;28;19909;-51
2022/05/25 07:02:18;;;;;;;;;;;15.80;87.50;;;;;;5026230;28;19913;-50
2022/05/25 07:04:45;;;;;;;;;;;15.60;88.30;;;;;;5022394;28;19917;-58
2022/05/25 07:07:12;;;;;;;;;;;15.40;88.60;;;;;;5014822;28;19913;-54
2022/05/25 07:09:39;;;;;;;;;;;15.30;89.40;;;;;;5016359;28;19925;-50
2022/05/25 07:12:09;;;;;;;;;;;15.10;90.30;;;;;;5023454;28;19948;-53
2022/05/25 07:14:37;;;;;;;;;;;15.00;90.60;;;;;;5020951;28;19924;-50
2022/05/25 07:17:04;;;;;;;;;;;15.00;91.40;;;;;;5018232;28;19964;-50
2022/05/25 07:19:31;;;;;;;;;;;15.00;91.30;;;;;;5027059;28;19923;-55
2022/05/25 07:21:58;;;;;;;;;;;14.90;91.70;;;;;;5026042;28;19909;-51
2022/05/25 07:24:24;;;;;;;;;;;14.80;91.70;;;;;;5010866;28;19914;-52
2022/05/25 07:26:51;;;;;;;;;;;14.80;91.90;;;;;;5025189;28;19915;-53
2022/05/25 07:29:18;;;;;;;;;;;14.70;92.10;;;;;;5016448;28;19956;-51
2022/05/25 07:31:52;;;;;;;;;;;14.60;92.40;;;;;;5020393;28;19923;-53
2022/05/25 07:34:21;;;;;;;;;;;14.50;92.30;;;;;;5026069;28;20297;-56
2022/05/25 07:36:50;;;;;;;;;;;14.40;92.30;;;;;;5018750;28;19949;-52
2022/05/25 07:39:18;;;;;;;;;;;14.50;93.00;;;;;;5023753;28;19916;-57
2022/05/25 07:41:48;;;;;;;;;;;14.50;92.80;;;;;;5019690;28;20509;-53
2022/05/25 07:44:17;;;;;;;;;;;14.60;92.40;;;;;;5020737;28;19987;-55
2022/05/25 07:46:44;;;;;;;;;;;14.60;92.60;;;;;;5017718;28;20595;-57
2022/05/25 07:49:11;;;;;;;;;;;14.50;92.40;;;;;;5017609;28;19964;-52
2022/05/25 07:51:37;;;;;;;;;;;14.40;93.00;;;;;;5021028;28;19936;-57
2022/05/25 07:54:04;;;;;;;;;;;14.50;92.90;;;;;;5020985;28;19967;-54
2022/05/25 07:56:32;;;;;;;;;;;14.50;92.50;;;;;;5022543;28;19909;-51
2022/05/25 07:59:03;;;;;;;;;;;14.30;93.10;;;;;;5022453;28;19959;-55
2022/05/25 08:07:03;;;;;;;;;;;14.40;93.50;;;;;;5022666;28;19928;-52
2022/05/25 08:09:30;;;;;;;;;;;14.40;93.50;;;;;;5031692;28;20352;-55
2022/05/25 08:11:56;;;;;;;;;;;14.30;93.20;;;;;;5027869;28;20358;-56
2022/05/25 08:14:27;;;;;;;;;;;14.20;93.40;;;;;;5024677;28;19917;-54
2022/05/25 08:16:54;;;;;;;;;;;14.10;93.70;;;;;;5022398;28;19909;-55
2022/05/25 08:19:21;;;;;;;;;;;14.10;94.00;;;;;;5030734;28;19955;-56
2022/05/25 08:22:06;;;;;;;;;;;14.00;93.50;;;;;;5030768;28;19972;-56
2022/05/25 08:24:32;;;;;;;;;;;13.80;93.60;;;;;;5016439;28;20384;-56
2022/05/25 08:26:59;;;;;;;;;;;13.60;93.60;;;;;;5025530;28;19920;-58
2022/05/25 08:29:26;;;;;;;;;;;13.40;93.60;;;;;;5025836;28;19920;-52
2022/05/25 08:31:55;;;;;;;;;;;13.30;94.20;;;;;;5023613;28;19911;-55
2022/05/25 08:34:31;;;;;;;;;;;13.30;94.60;;;;;;5029306;28;19913;-55
2022/05/25 08:36:58;;;;;;;;;;;13.20;94.60;;;;;;5022728;28;19915;-57
2022/05/25 08:39:28;;;;;;;;;;;13.20;94.70;;;;;;5025278;28;19999;-57
2022/05/25 08:41:59;;;;;;;;;;;13.10;94.80;;;;;;5019172;28;19916;-56
2022/05/25 08:44:26;;;;;;;;;;;13.00;95.00;;;;;;5023415;28;20275;-59
2022/05/25 08:46:55;;;;;;;;;;;13.00;95.30;;;;;;5028616;28;20370;-56
2022/05/25 08:49:23;;;;;;;;;;;13.00;95.30;;;;;;5027071;28;20448;-60
2022/05/25 08:51:52;;;;;;;;;;;12.90;95.40;;;;;;5020920;28;19917;-55
2022/05/25 08:54:19;;;;;;;;;;;12.90;95.20;;;;;;5024938;28;19948;-57
2022/05/25 08:56:52;;;;;;;;;;;12.80;95.40;;;;;;5026653;28;19994;-62
2022/05/25 08:59:26;;;;;;;;;;;12.80;95.80;;;;;;5026338;28;20393;-62
2022/05/25 09:01:59;;;;;;;;;;;12.70;95.90;;;;;;5026854;28;19991;-60
2022/05/25 09:04:42;;;;;;;;;;;12.70;95.80;;;;;;5018571;28;20404;-61
2022/05/25 09:07:27;;;;;;;;;;;12.70;96.30;;;;;;5021150;28;19913;-61
2022/05/25 09:09:54;;;;;;;;;;;12.80;96.50;;;;;;5024184;28;19921;-62
2022/05/25 09:12:39;;;;;;;;;;;12.70;96.30;;;;;;5020942;28;20024;-63
2022/05/25 09:15:23;;;;;;;;;;;12.80;96.40;;;;;;5017562;28;19921;-63
2022/05/25 09:17:54;;;;;;;;;;;12.70;96.50;;;;;;5024312;28;19983;-62
2022/05/25 09:20:24;;;;;;;;;;;12.70;96.20;;;;;;5023714;28;19913;-62
2022/05/25 09:22:50;;;;;;;;;;;12.70;96.20;;;;;;5018567;28;19959;-63
2022/05/25 09:25:17;;;;;;;;;;;12.70;96.40;;;;;;5024623;28;20282;-63
2022/05/25 09:28:07;;;;;;;;;;;12.60;96.20;;;;;;5027784;28;19917;-63
2022/05/25 09:30:37;;;;;;;;;;;12.60;96.30;;;;;;5013512;28;20277;-62
2022/05/25 09:33:04;;;;;;;;;;;12.60;96.30;;;;;;5019515;28;19909;-63
2022/05/25 09:35:33;;;;;;;;;;;12.50;96.40;;;;;;5027946;28;19919;-62
2022/05/25 09:38:05;;;;;;;;;;;12.50;96.20;;;;;;5020366;28;19909;-62
2022/05/25 09:40:39;;;;;;;;;;;12.50;96.50;;;;;;5016976;28;19961;-62
2022/05/25 09:43:08;;;;;;;;;;;12.40;96.60;;;;;;5022416;28;20415;-62
2022/05/25 09:45:43;;;;;;;;;;;12.40;96.60;;;;;;5017063;28;20297;-63
2022/05/25 09:48:19;;;;;;;;;;;12.40;96.60;;;;;;5021329;28;20543;-62
2022/05/25 09:50:49;;;;;;;;;;;12.40;96.50;;;;;;5017372;28;20361;-62
2022/05/25 09:53:17;;;;;;;;;;;12.30;96.40;;;;;;5022984;28;20312;-62
2022/05/25 09:56:00;;;;;;;;;;;12.30;96.50;;;;;;5026677;28;20361;-63
2022/05/25 09:58:36;;;;;;;;;;;12.30;96.60;;;;;;5024933;28;20721;-60
2022/05/25 10:01:07;;;;;;;;;;;12.20;96.70;;;;;;5023898;28;20361;-62
2022/05/25 10:03:41;;;;;;;;;;;12.20;96.70;;;;;;5026941;28;19920;-62
2022/05/25 10:06:23;;;;;;;;;;;12.20;97.20;;;;;;5012835;28;19924;-62
2022/05/25 10:09:08;;;;;;;;;;;12.20;97.20;;;;;;5016246;28;19967;-63
2022/05/25 10:11:55;;;;;;;;;;;12.20;97.00;;;;;;5024499;28;19908;-63
2022/05/25 10:14:30;;;;;;;;;;;12.20;96.90;;;;;;5012549;28;20381;-62
2022/05/25 10:16:58;;;;;;;;;;;12.10;96.90;;;;;;5022435;28;20008;-62
2022/05/25 10:19:25;;;;;;;;;;;12.10;97.00;;;;;;5026488;28;20011;-63
2022/05/25 10:21:56;;;;;;;;;;;12.20;97.80;;;;;;5023036;28;19960;-62
2022/05/25 10:24:41;;;;;;;;;;;12.10;97.30;;;;;;5018793;28;19931;-61
2022/05/25 10:27:22;;;;;;;;;;;12.20;97.40;;;;;;5023284;28;19917;-63
2022/05/25 10:38:11;;;;;;;;;;;12.20;97.70;;;;;;5024795;28;19939;-62
2022/05/25 10:40:42;;;;;;;;;;;12.20;97.70;;;;;;5022995;28;19912;-62
2022/05/25 10:43:13;;;;;;;;;;;12.20;97.80;;;;;;5022541;28;19944;-63
2022/05/25 10:45:42;;;;;;;;;;;12.20;97.90;;;;;;5024932;28;20437;-62
2022/05/25 10:48:14;;;;;;;;;;;12.30;97.70;;;;;;5024951;28;20321;-62
2022/05/25 10:50:55;;;;;;;;;;;12.20;97.70;;;;;;5021721;28;19917;-63
2022/05/25 10:53:35;;;;;;;;;;;12.10;97.30;;;;;;5018414;28;19928;-62
2022/05/25 10:56:02;;;;;;;;;;;12.10;97.30;;;;;;5009193;28;19964;-62
2022/05/25 10:58:43;;;;;;;;;;;12.00;97.00;;;;;;5018781;28;19971;-61
2022/05/25 11:01:14;;;;;;;;;;;11.90;97.00;;;;;;5023059;28;19920;-62
2022/05/25 11:03:56;;;;;;;;;;;11.90;97.50;;;;;;5015523;28;19913;-62
2022/05/25 11:06:46;;;;;;;;;;;11.90;97.90;;;;;;5021743;28;19919;-62
2022/05/25 11:09:18;;;;;;;;;;;11.90;97.90;;;;;;5019351;28;19920;-61
2022/05/25 11:12:01;;;;;;;;;;;12.00;98.00;;;;;;5024683;28;19960;-62
2022/05/25 11:14:40;;;;;;;;;;;12.00;97.90;;;;;;5011323;28;19965;-62
2022/05/25 11:17:26;;;;;;;;;;;12.00;97.60;;;;;;5021310;28;19909;-61
2022/05/25 11:20:05;;;;;;;;;;;11.90;98.00;;;;;;5015942;28;19916;-62
2022/05/25 11:22:45;;;;;;;;;;;12.00;97.90;;;;;;5016817;28;19967;-63
2022/05/25 11:25:30;;;;;;;;;;;12.00;97.70;;;;;;5018728;28;20426;-62
2022/05/25 11:27:57;;;;;;;;;;;11.90;97.70;;;;;;5020062;28;19932;-62
2022/05/25 11:30:43;;;;;;;;;;;11.90;97.50;;;;;;5020843;28;19915;-60
2022/05/25 11:33:10;;;;;;;;;;;11.80;97.40;;;;;;5022798;28;20051;-60
2022/05/25 11:35:39;;;;;;;;;;;11.90;97.80;;;;;;5021135;28;19909;-57
2022/05/25 11:38:08;;;;;;;;;;;11.90;97.90;;;;;;5026699;28;19920;-58
2022/05/25 11:40:37;;;;;;;;;;;11.90;97.90;;;;;;5013513;28;20059;-57
2022/05/25 11:43:13;;;;;;;;;;;12.00;97.90;;;;;;5011038;28;20122;-57
2022/05/25 11:45:39;;;;;;;;;;;12.10;98.00;;;;;;5020746;28;19924;-58
2022/05/25 11:48:39;;;;;;;;;;;12.10;98.10;;;;;;5023076;28;19995;-59
2022/05/25 11:51:14;;;;;;;;;;;12.10;97.90;;;;;;5024222;28;19920;-59
2022/05/25 11:53:56;;;;;;;;;;;12.20;98.00;;;;;;5025079;28;19913;-59
2022/05/25 11:56:26;;;;;;;;;;;12.30;97.90;;;;;;5022811;28;20392;-58
2022/05/25 11:59:01;;;;;;;;;;;12.30;97.80;;;;;;5013934;28;19935;-59
2022/05/25 12:01:46;;;;;;;;;;;12.40;97.60;;;;;;5026153;28;19920;-58
2022/05/25 12:04:18;;;;;;;;;;;12.40;97.40;;;;;;5023519;28;20433;-59
2022/05/25 12:06:50;;;;;;;;;;;12.30;97.10;;;;;;5017945;28;19932;-58
2022/05/25 12:09:33;;;;;;;;;;;12.30;97.20;;;;;;5021186;28;19929;-59
2022/05/25 12:12:07;;;;;;;;;;;12.30;96.90;;;;;;5019971;28;19913;-57
2022/05/25 12:14:44;;;;;;;;;;;12.30;97.20;;;;;;5026162;28;19913;-58
2022/05/25 12:17:23;;;;;;;;;;;12.40;97.20;;;;;;5022972;28;19913;-60
2022/05/25 12:19:52;;;;;;;;;;;12.40;97.00;;;;;;5016839;28;19920;-58
2022/05/25 12:22:21;;;;;;;;;;;12.40;96.90;;;;;;5013565;28;19917;-59
2022/05/25 12:24:53;;;;;;;;;;;12.30;96.90;;;;;;5029658;28;20480;-57
2022/05/25 12:27:22;;;;;;;;;;;12.30;96.80;;;;;;5029217;28;20006;-58
2022/05/25 12:29:53;;;;;;;;;;;12.30;97.00;;;;;;5028570;28;19913;-59
2022/05/25 12:32:21;;;;;;;;;;;12.20;96.80;;;;;;5023068;28;19912;-56
2022/05/25 12:34:50;;;;;;;;;;;12.10;96.80;;;;;;5025505;28;19944;-59
2022/05/25 12:37:30;;;;;;;;;;;12.10;97.00;;;;;;5020946;28;20368;-59
2022/05/25 12:39:58;;;;;;;;;;;12.00;97.10;;;;;;5026093;28;19909;-58
2022/05/25 12:42:25;;;;;;;;;;;12.00;97.20;;;;;;5032285;28;20421;-58
2022/05/25 12:50:34;;;;;;;;;;;12.10;97.10;;;;;;5032334;28;20035;-57
2022/05/25 12:53:18;;;;;;;;;;;12.00;97.10;;;;;;5013469;28;19916;-59
2022/05/25 12:55:53;;;;;;;;;;;11.90;96.80;;;;;;5019465;28;19909;-59
2022/05/25 12:58:39;;;;;;;;;;;11.90;96.90;;;;;;5029576;28;19905;-59
2022/05/25 13:01:07;;;;;;;;;;;11.90;97.00;;;;;;5016113;28;19920;-57
2022/05/25 13:03:43;;;;;;;;;;;11.80;96.90;;;;;;5032169;28;20003;-59
2022/05/25 13:06:11;;;;;;;;;;;11.80;97.10;;;;;;5032442;28;20292;-60
2022/05/25 13:08:46;;;;;;;;;;;11.70;97.00;;;;;;5032391;28;20043;-59
2022/05/25 13:11:31;;;;;;;;;;;11.60;96.60;;;;;;5032627;28;19912;-59
2022/05/25 13:13:58;;;;;;;;;;;11.50;96.60;;;;;;5018006;28;19921;-59
2022/05/25 13:16:40;;;;;;;;;;;11.30;96.50;;;;;;5011147;28;19906;-58
2022/05/25 13:19:19;;;;;;;;;;;11.30;96.60;;;;;;5025039;28;19913;-58
2022/05/25 13:22:10;;;;;;;;;;;11.20;96.70;;;;;;5029625;28;19913;-57
2022/05/25 13:24:41;;;;;;;;;;;11.10;96.90;;;;;;5030533;28;19947;-59
2022/05/25 13:27:19;;;;;;;;;;;11.10;96.80;;;;;;5031308;28;19928;-58
2022/05/25 13:29:45;;;;;;;;;;;11.00;96.80;;;;;;5030507;28;19905;-59
2022/05/25 13:32:33;;;;;;;;;;;10.90;96.80;;;;;;5031248;28;20042;-59
2022/05/25 13:35:02;;;;;;;;;;;10.90;97.20;;;;;;5027461;28;19932;-56
2022/05/25 13:37:31;;;;;;;;;;;10.90;97.30;;;;;;5030138;28;19919;-57
2022/05/25 13:39:57;;;;;;;;;;;10.80;97.10;;;;;;5031232;28;19916;-57
2022/05/25 13:42:24;;;;;;;;;;;10.70;97.00;;;;;;5029984;28;20381;-58
2022/05/25 13:44:53;;;;;;;;;;;10.70;97.00;;;;;;5030092;28;19924;-59
2022/05/25 13:47:24;;;;;;;;;;;10.60;96.80;;;;;;5030417;28;19909;-55
2022/05/25 13:49:52;;;;;;;;;;;10.50;96.80;;;;;;5030801;28;19912;-59
2022/05/25 13:52:23;;;;;;;;;;;10.40;96.80;;;;;;5029805;28;19912;-58
2022/05/25 13:54:52;;;;;;;;;;;10.40;97.10;;;;;;5029374;28;19951;-56
2022/05/25 13:57:22;;;;;;;;;;;10.40;97.70;;;;;;5029413;28;19956;-59
2022/05/25 13:59:48;;;;;;;;;;;10.40;97.40;;;;;;5029112;28;19913;-59
2022/05/25 14:02:18;;;;;;;;;;;10.30;97.10;;;;;;5028198;28;20416;-56
2022/05/25 14:04:45;;;;;;;;;;;10.30;97.20;;;;;;5030967;28;20638;-50
2022/05/25 14:07:27;;;;;;;;;;;10.20;97.30;;;;;;5028875;28;19967;-55
2022/05/25 14:12:39;;;;;;;;;;;10.20;97.30;;;;;;5014044;28;19963;-59
2022/05/25 14:15:08;;;;;;;;;;;10.20;97.60;;;;;;5027067;28;20669;-54
2022/05/25 14:17:35;;;;;;;;;;;10.20;97.90;;;;;;5027289;28;19908;-57
2022/05/25 14:20:05;;;;;;;;;;;10.30;97.80;;;;;;5027631;28;20000;-58
2022/05/25 14:22:33;;;;;;;;;;;10.30;97.80;;;;;;5026743;28;19905;-57
2022/05/25 14:25:10;;;;;;;;;;;10.20;97.70;;;;;;5026666;28;19928;-55
2022/05/25 14:27:38;;;;;;;;;;;10.20;97.70;;;;;;5027612;28;19909;-58
2022/05/25 14:30:07;;;;;;;;;;;10.30;97.90;;;;;;5025797;28;20329;-56
2022/05/25 14:32:35;;;;;;;;;;;10.30;98.00;;;;;;5027065;28;20317;-55
2022/05/25 14:35:07;;;;;;;;;;;10.30;98.00;;;;;;5028752;28;19971;-57
2022/05/25 14:37:37;;;;;;;;;;;10.30;98.10;;;;;;5030016;28;20358;-56
2022/05/25 14:40:06;;;;;;;;;;;10.40;98.10;;;;;;5028895;28;19958;-56
2022/05/25 14:42:33;;;;;;;;;;;10.50;98.50;;;;;;5029276;28;19912;-57
2022/05/25 14:45:05;;;;;;;;;;;10.60;98.80;;;;;;5029056;28;19913;-56
2022/05/25 14:47:32;;;;;;;;;;;10.80;98.90;;;;;;5028814;28;20397;-58
2022/05/25 14:50:26;;;;;;;;;;;10.80;98.90;;;;;;5029726;28;20011;-58
2022/05/25 14:52:57;;;;;;;;;;;10.90;98.90;;;;;;5029336;28;20338;-58
2022/05/25 14:55:26;;;;;;;;;;;10.90;98.90;;;;;;5028228;28;19917;-58
2022/05/25 14:58:06;;;;;;;;;;;11.00;99.10;;;;;;5029615;28;19913;-54
2022/05/25 15:00:36;;;;;;;;;;;11.20;99.30;;;;;;5027853;28;20408;-59
2022/05/25 15:03:04;;;;;;;;;;;11.30;99.40;;;;;;5028319;28;19917;-59
2022/05/25 15:05:36;;;;;;;;;;;11.40;99.50;;;;;;5028325;28;19913;-58
2022/05/25 15:08:03;;;;;;;;;;;11.50;99.40;;;;;;5028743;28;19928;-58
2022/05/25 15:10:37;;;;;;;;;;;11.50;99.20;;;;;;5027821;28;19909;-58